Allston, Massachusetts
Current Conditions -  °F | °C
As of 4:54 AM on Monday 26 Jan 2015 (Local Time) from KBOS Reporting Station
Overcast Overcast  
Wind Chill:   Ceiling: 22000
Heat Index: 12°   Visibility: 10mi
Dew Point: -2°   Wind: 9mph
Humidity: 53%   Direction: 350°N
Pressure: 30.13"   Gusts: NA
Location:  42.36°N, 71.13°W
Report Text: KBOS 260954Z 35008KT 10SM OVC220 M11/M19 A3013 RMK AO2 SLP202 T11111189
Loading
Personal Weather Stations






























Interactive Weather Map New forecast layout! Learn more

10-Day Weather Forecast

Advertisements
Track Severe Weather on mobile